sensor_id;sensor_type;location;lat;lon;timestamp;pressure;altitude;pressure_sealevel;temperature;humidity
25584;BME280;13463;51.526;9.928;2023-12-22T00:01:24;97858.47;;;6.21;83.57
25584;BME280;13463;51.526;9.928;2023-12-22T00:03:50;97864.88;;;6.17;83.76
25584;BME280;13463;51.526;9.928;2023-12-22T00:06:17;97847.94;;;6.21;84.34
25584;BME280;13463;51.526;9.928;2023-12-22T00:08:44;97854.94;;;6.10;85.52
25584;BME280;13463;51.526;9.928;2023-12-22T00:11:10;97855.78;;;5.97;87.31
25584;BME280;13463;51.526;9.928;2023-12-22T00:13:37;97842.72;;;5.96;86.31
25584;BME280;13463;51.526;9.928;2023-12-22T00:16:04;97846.66;;;5.90;85.83
25584;BME280;13463;51.526;9.928;2023-12-22T00:18:30;97842.72;;;5.83;86.14
25584;BME280;13463;51.526;9.928;2023-12-22T00:20:58;97842.22;;;5.91;85.55
25584;BME280;13463;51.526;9.928;2023-12-22T00:23:25;97846.94;;;5.86;86.59
25584;BME280;13463;51.526;9.928;2023-12-22T00:25:51;97849.78;;;5.83;86.06
25584;BME280;13463;51.526;9.928;2023-12-22T00:28:18;97844.22;;;5.75;87.14
25584;BME280;13463;51.526;9.928;2023-12-22T00:30:45;97843.16;;;5.65;87.96
25584;BME280;13463;51.526;9.928;2023-12-22T00:33:11;97840.22;;;5.69;87.08
25584;BME280;13463;51.526;9.928;2023-12-22T00:35:38;97845.50;;;5.57;88.77
25584;BME280;13463;51.526;9.928;2023-12-22T00:38:05;97837.06;;;5.64;88.28
25584;BME280;13463;51.526;9.928;2023-12-22T00:40:31;97836.25;;;5.51;89.10
25584;BME280;13463;51.526;9.928;2023-12-22T00:42:58;97837.28;;;5.49;90.05
25584;BME280;13463;51.526;9.928;2023-12-22T00:45:24;97840.66;;;5.51;89.67
25584;BME280;13463;51.526;9.928;2023-12-22T00:47:51;97843.38;;;5.62;88.21
25584;BME280;13463;51.526;9.928;2023-12-22T00:50:18;97841.06;;;5.70;88.67
25584;BME280;13463;51.526;9.928;2023-12-22T00:52:45;97845.25;;;5.60;88.95
25584;BME280;13463;51.526;9.928;2023-12-22T00:55:12;97850.00;;;5.80;86.86
25584;BME280;13463;51.526;9.928;2023-12-22T00:57:38;97842.94;;;5.80;86.01
25584;BME280;13463;51.526;9.928;2023-12-22T01:00:05;97857.16;;;5.78;85.51
25584;BME280;13463;51.526;9.928;2023-12-22T01:02:35;97853.91;;;5.87;83.89
25584;BME280;13463;51.526;9.928;2023-12-22T01:05:01;97871.03;;;5.80;84.71
25584;BME280;13463;51.526;9.928;2023-12-22T01:07:28;97881.03;;;5.75;85.00
25584;BME280;13463;51.526;9.928;2023-12-22T01:09:55;97870.75;;;5.84;84.18
25584;BME280;13463;51.526;9.928;2023-12-22T01:12:22;97893.97;;;5.78;84.20
25584;BME280;13463;51.526;9.928;2023-12-22T01:14:48;97885.88;;;5.81;85.14
25584;BME280;13463;51.526;9.928;2023-12-22T01:17:18;97883.88;;;5.97;82.16
25584;BME280;13463;51.526;9.928;2023-12-22T01:19:44;97881.25;;;5.97;82.10
25584;BME280;13463;51.526;9.928;2023-12-22T01:22:12;97886.91;;;6.03;80.25
25584;BME280;13463;51.526;9.928;2023-12-22T01:24:38;97873.44;;;5.95;82.14
25584;BME280;13463;51.526;9.928;2023-12-22T01:27:09;97871.34;;;6.00;83.58
25584;BME280;13463;51.526;9.928;2023-12-22T01:29:36;97867.59;;;5.92;83.44
25584;BME280;13463;51.526;9.928;2023-12-22T01:32:03;97877.06;;;5.94;84.29
25584;BME280;13463;51.526;9.928;2023-12-22T01:34:30;97879.75;;;6.05;83.76
25584;BME280;13463;51.526;9.928;2023-12-22T01:36:57;97884.22;;;5.92;85.53
25584;BME280;13463;51.526;9.928;2023-12-22T01:39:23;97888.63;;;5.92;86.96
25584;BME280;13463;51.526;9.928;2023-12-22T01:41:50;97885.22;;;6.15;85.42
25584;BME280;13463;51.526;9.928;2023-12-22T01:44:16;97880.94;;;5.89;88.96
25584;BME280;13463;51.526;9.928;2023-12-22T01:46:43;97890.28;;;5.68;94.28
25584;BME280;13463;51.526;9.928;2023-12-22T01:49:10;97892.81;;;5.57;98.99
25584;BME280;13463;51.526;9.928;2023-12-22T01:51:39;97907.63;;;5.32;100.00
25584;BME280;13463;51.526;9.928;2023-12-22T01:54:06;97894.47;;;5.32;100.00
25584;BME280;13463;51.526;9.928;2023-12-22T01:56:33;97931.44;;;5.17;100.00
25584;BME280;13463;51.526;9.928;2023-12-22T01:59:01;97979.78;;;4.73;100.00
25584;BME280;13463;51.526;9.928;2023-12-22T02:01:28;97990.09;;;4.22;100.00
25584;BME280;13463;51.526;9.928;2023-12-22T02:03:55;97953.00;;;3.85;100.00
25584;BME280;13463;51.526;9.928;2023-12-22T02:06:23;97951.63;;;3.64;100.00
25584;BME280;13463;51.526;9.928;2023-12-22T02:08:50;97950.88;;;3.62;100.00
25584;BME280;13463;51.526;9.928;2023-12-22T02:11:17;97962.13;;;3.64;100.00
25584;BME280;13463;51.526;9.928;2023-12-22T02:13:43;97972.50;;;3.52;100.00
25584;BME280;13463;51.526;9.928;2023-12-22T02:19:31;97963.06;;;3.63;100.00
25584;BME280;13463;51.526;9.928;2023-12-22T02:22:04;97973.72;;;3.60;100.00
25584;BME280;13463;51.526;9.928;2023-12-22T02:24:35;97981.44;;;3.77;100.00
25584;BME280;13463;51.526;9.928;2023-12-22T02:29:54;97984.81;;;3.79;100.00
25584;BME280;13463;51.526;9.928;2023-12-22T02:32:27;97987.50;;;3.34;100.00
25584;BME280;13463;51.526;9.928;2023-12-22T02:34:57;97968.25;;;2.90;100.00
25584;BME280;13463;51.526;9.928;2023-12-22T02:37:26;97986.09;;;2.67;100.00
25584;BME280;13463;51.526;9.928;2023-12-22T02:39:53;97971.22;;;2.52;100.00
25584;BME280;13463;51.526;9.928;2023-12-22T02:42:21;97981.19;;;2.61;100.00
25584;BME280;13463;51.526;9.928;2023-12-22T02:44:52;97998.91;;;2.56;100.00
25584;BME280;13463;51.526;9.928;2023-12-22T02:47:19;97999.75;;;2.57;100.00
25584;BME280;13463;51.526;9.928;2023-12-22T02:49:49;97994.09;;;2.64;100.00
25584;BME280;13463;51.526;9.928;2023-12-22T02:52:15;97997.25;;;2.55;100.00
25584;BME280;13463;51.526;9.928;2023-12-22T02:54:42;97985.56;;;2.45;100.00
25584;BME280;13463;51.526;9.928;2023-12-22T02:57:09;97981.34;;;2.43;100.00
25584;BME280;13463;51.526;9.928;2023-12-22T02:59:36;97971.66;;;2.45;100.00
25584;BME280;13463;51.526;9.928;2023-12-22T03:02:03;97960.28;;;2.46;100.00
25584;BME280;13463;51.526;9.928;2023-12-22T03:04:30;97974.19;;;2.62;100.00
25584;BME280;13463;51.526;9.928;2023-12-22T03:06:58;97965.66;;;2.58;100.00
25584;BME280;13463;51.526;9.928;2023-12-22T03:09:24;97970.56;;;2.64;100.00
25584;BME280;13463;51.526;9.928;2023-12-22T03:11:51;97970.88;;;2.58;100.00
25584;BME280;13463;51.526;9.928;2023-12-22T03:14:24;97976.97;;;2.59;100.00
25584;BME280;13463;51.526;9.928;2023-12-22T03:16:51;97981.34;;;2.58;100.00
25584;BME280;13463;51.526;9.928;2023-12-22T03:19:17;97981.53;;;2.55;100.00
25584;BME280;13463;51.526;9.928;2023-12-22T03:21:44;97965.50;;;2.61;100.00
25584;BME280;13463;51.526;9.928;2023-12-22T03:24:11;97955.34;;;2.87;100.00
25584;BME280;13463;51.526;9.928;2023-12-22T03:26:39;97956.16;;;3.03;100.00
25584;BME280;13463;51.526;9.928;2023-12-22T03:29:06;97956.91;;;3.05;100.00
25584;BME280;13463;51.526;9.928;2023-12-22T03:31:35;97965.13;;;2.99;100.00
25584;BME280;13463;51.526;9.928;2023-12-22T03:34:01;97970.22;;;3.16;100.00
25584;BME280;13463;51.526;9.928;2023-12-22T03:36:28;97971.09;;;3.30;100.00
25584;BME280;13463;51.526;9.928;2023-12-22T03:38:55;97998.91;;;3.33;100.00
25584;BME280;13463;51.526;9.928;2023-12-22T03:41:21;97997.69;;;3.54;100.00
25584;BME280;13463;51.526;9.928;2023-12-22T03:43:48;97997.75;;;3.53;100.00
25584;BME280;13463;51.526;9.928;2023-12-22T03:46:15;98007.88;;;3.45;100.00
25584;BME280;13463;51.526;9.928;2023-12-22T03:48:41;98012.09;;;3.47;100.00
25584;BME280;13463;51.526;9.928;2023-12-22T03:51:08;98006.25;;;3.42;100.00
25584;BME280;13463;51.526;9.928;2023-12-22T03:53:37;98004.38;;;3.44;100.00
25584;BME280;13463;51.526;9.928;2023-12-22T03:56:04;98017.28;;;3.17;100.00
25584;BME280;13463;51.526;9.928;2023-12-22T03:58:30;98000.25;;;3.10;100.00
25584;BME280;13463;51.526;9.928;2023-12-22T04:00:57;97990.63;;;3.11;100.00
25584;BME280;13463;51.526;9.928;2023-12-22T04:03:24;97987.03;;;3.12;100.00
25584;BME280;13463;51.526;9.928;2023-12-22T04:05:50;97988.16;;;3.08;100.00
25584;BME280;13463;51.526;9.928;2023-12-22T04:08:17;97982.59;;;3.28;100.00
25584;BME280;13463;51.526;9.928;2023-12-22T04:10:44;97988.31;;;3.05;100.00
25584;BME280;13463;51.526;9.928;2023-12-22T04:13:10;97976.81;;;3.23;100.00
25584;BME280;13463;51.526;9.928;2023-12-22T04:15:39;97988.69;;;3.28;100.00
25584;BME280;13463;51.526;9.928;2023-12-22T04:18:06;97988.69;;;3.28;100.00
25584;BME280;13463;51.526;9.928;2023-12-22T04:20:32;97977.63;;;3.39;100.00
25584;BME280;13463;51.526;9.928;2023-12-22T04:22:59;97984.63;;;3.38;100.00
25584;BME280;13463;51.526;9.928;2023-12-22T04:25:26;97975.94;;;3.52;100.00
25584;BME280;13463;51.526;9.928;2023-12-22T04:27:53;97966.47;;;3.50;100.00
25584;BME280;13463;51.526;9.928;2023-12-22T04:30:19;97963.78;;;3.51;100.00
25584;BME280;13463;51.526;9.928;2023-12-22T04:32:46;97957.53;;;3.54;100.00
25584;BME280;13463;51.526;9.928;2023-12-22T04:35:13;97964.44;;;3.55;100.00
25584;BME280;13463;51.526;9.928;2023-12-22T04:37:42;97962.31;;;3.61;100.00
25584;BME280;13463;51.526;9.928;2023-12-22T04:40:09;97967.47;;;3.63;100.00
25584;BME280;13463;51.526;9.928;2023-12-22T04:42:36;97972.22;;;3.56;100.00
25584;BME280;13463;51.526;9.928;2023-12-22T04:45:03;97978.25;;;3.72;100.00
25584;BME280;13463;51.526;9.928;2023-12-22T04:47:29;97973.47;;;3.79;100.00
25584;BME280;13463;51.526;9.928;2023-12-22T04:49:56;97963.06;;;3.63;100.00
25584;BME280;13463;51.526;9.928;2023-12-22T04:52:22;97954.09;;;3.81;100.00
25584;BME280;13463;51.526;9.928;2023-12-22T04:54:49;97946.91;;;3.85;100.00
25584;BME280;13463;51.526;9.928;2023-12-22T04:57:16;97940.44;;;3.90;100.00
25584;BME280;13463;51.526;9.928;2023-12-22T04:59:44;97945.03;;;3.87;100.00
25584;BME280;13463;51.526;9.928;2023-12-22T05:02:10;97945.13;;;3.99;100.00
25584;BME280;13463;51.526;9.928;2023-12-22T05:04:37;97957.28;;;4.00;100.00
25584;BME280;13463;51.526;9.928;2023-12-22T05:07:04;97954.59;;;4.02;100.00
25584;BME280;13463;51.526;9.928;2023-12-22T05:09:33;97949.06;;;3.92;100.00
25584;BME280;13463;51.526;9.928;2023-12-22T05:12:00;97947.34;;;3.91;100.00
25584;BME280;13463;51.526;9.928;2023-12-22T05:14:26;97951.28;;;3.84;100.00
25584;BME280;13463;51.526;9.928;2023-12-22T05:16:53;97947.91;;;4.11;100.00
25584;BME280;13463;51.526;9.928;2023-12-22T05:19:22;97951.84;;;4.03;100.00
25584;BME280;13463;51.526;9.928;2023-12-22T05:21:48;97941.47;;;4.02;100.00
25584;BME280;13463;51.526;9.928;2023-12-22T05:24:16;97935.66;;;4.11;100.00
25584;BME280;13463;51.526;9.928;2023-12-22T05:26:42;97925.28;;;4.10;100.00
25584;BME280;13463;51.526;9.928;2023-12-22T05:29:09;97942.78;;;4.09;100.00
25584;BME280;13463;51.526;9.928;2023-12-22T05:31:36;97941.00;;;4.10;100.00
25584;BME280;13463;51.526;9.928;2023-12-22T05:34:03;97948.38;;;4.17;100.00
25584;BME280;13463;51.526;9.928;2023-12-22T05:36:30;97966.84;;;4.16;100.00
25584;BME280;13463;51.526;9.928;2023-12-22T05:38:56;97946.88;;;4.27;100.00
25584;BME280;13463;51.526;9.928;2023-12-22T05:41:23;97955.13;;;4.21;100.00
25584;BME280;13463;51.526;9.928;2023-12-22T05:43:49;97978.28;;;4.15;100.00
25584;BME280;13463;51.526;9.928;2023-12-22T05:46:16;97972.00;;;4.31;100.00
25584;BME280;13463;51.526;9.928;2023-12-22T05:48:43;97963.28;;;4.31;100.00
25584;BME280;13463;51.526;9.928;2023-12-22T05:51:09;97973.03;;;4.29;100.00
25584;BME280;13463;51.526;9.928;2023-12-22T05:53:40;97963.28;;;4.31;100.00
25584;BME280;13463;51.526;9.928;2023-12-22T05:56:27;97990.94;;;4.36;100.00
25584;BME280;13463;51.526;9.928;2023-12-22T05:58:53;97988.56;;;4.32;100.00
25584;BME280;13463;51.526;9.928;2023-12-22T06:01:21;97996.63;;;4.43;100.00
25584;BME280;13463;51.526;9.928;2023-12-22T06:03:47;97989.41;;;4.46;100.00
25584;BME280;13463;51.526;9.928;2023-12-22T06:06:15;98002.16;;;4.38;100.00
25584;BME280;13463;51.526;9.928;2023-12-22T06:08:41;98000.00;;;4.45;100.00
25584;BME280;13463;51.526;9.928;2023-12-22T06:11:08;98001.50;;;4.35;100.00
25584;BME280;13463;51.526;9.928;2023-12-22T06:13:34;98012.97;;;4.34;100.00
25584;BME280;13463;51.526;9.928;2023-12-22T06:16:01;98000.19;;;4.28;100.00
25584;BME280;13463;51.526;9.928;2023-12-22T06:18:28;97997.56;;;4.28;100.00
25584;BME280;13463;51.526;9.928;2023-12-22T06:20:54;97991.13;;;4.33;100.00
25584;BME280;13463;51.526;9.928;2023-12-22T06:23:22;97991.69;;;4.38;100.00
25584;BME280;13463;51.526;9.928;2023-12-22T06:25:49;98003.56;;;4.44;100.00
25584;BME280;13463;51.526;9.928;2023-12-22T06:28:16;98027.19;;;4.30;100.00
25584;BME280;13463;51.526;9.928;2023-12-22T06:30:44;98008.63;;;4.33;100.00
25584;BME280;13463;51.526;9.928;2023-12-22T06:33:10;98030.81;;;4.27;100.00
25584;BME280;13463;51.526;9.928;2023-12-22T06:35:38;98026.78;;;4.07;100.00
25584;BME280;13463;51.526;9.928;2023-12-22T06:38:07;98031.50;;;4.02;100.00
25584;BME280;13463;51.526;9.928;2023-12-22T06:40:34;98045.69;;;3.84;100.00
25584;BME280;13463;51.526;9.928;2023-12-22T06:43:01;98042.47;;;3.79;100.00
25584;BME280;13463;51.526;9.928;2023-12-22T06:45:27;98054.34;;;3.71;100.00
25584;BME280;13463;51.526;9.928;2023-12-22T06:47:55;98038.22;;;3.92;100.00
25584;BME280;13463;51.526;9.928;2023-12-22T06:50:22;98027.72;;;3.92;100.00
25584;BME280;13463;51.526;9.928;2023-12-22T06:52:49;98038.00;;;3.95;100.00
25584;BME280;13463;51.526;9.928;2023-12-22T06:55:17;98029.41;;;4.07;100.00
25584;BME280;13463;51.526;9.928;2023-12-22T06:57:44;98025.47;;;4.00;100.00
25584;BME280;13463;51.526;9.928;2023-12-22T07:00:12;98030.91;;;3.97;100.00
25584;BME280;13463;51.526;9.928;2023-12-22T07:02:39;98024.16;;;3.93;100.00
25584;BME280;13463;51.526;9.928;2023-12-22T07:07:36;98033.56;;;4.12;100.00
25584;BME280;13463;51.526;9.928;2023-12-22T07:10:03;98074.56;;;4.27;100.00
25584;BME280;13463;51.526;9.928;2023-12-22T07:12:30;98059.97;;;4.51;100.00
25584;BME280;13463;51.526;9.928;2023-12-22T07:14:58;98075.38;;;4.43;100.00
25584;BME280;13463;51.526;9.928;2023-12-22T07:17:25;98070.28;;;4.54;100.00
25584;BME280;13463;51.526;9.928;2023-12-22T07:19:52;98088.09;;;4.63;100.00
25584;BME280;13463;51.526;9.928;2023-12-22T07:22:19;98113.41;;;4.50;100.00
25584;BME280;13463;51.526;9.928;2023-12-22T07:24:46;98114.34;;;4.63;100.00
25584;BME280;13463;51.526;9.928;2023-12-22T07:27:12;98122.50;;;4.58;100.00
25584;BME280;13463;51.526;9.928;2023-12-22T07:29:39;98124.59;;;4.67;100.00
25584;BME280;13463;51.526;9.928;2023-12-22T07:32:06;98117.25;;;4.72;100.00
25584;BME280;13463;51.526;9.928;2023-12-22T07:34:33;98114.84;;;4.69;100.00
25584;BME280;13463;51.526;9.928;2023-12-22T07:37:03;98112.09;;;4.85;100.00
25584;BME280;13463;51.526;9.928;2023-12-22T07:39:34;98116.03;;;4.92;100.00
25584;BME280;13463;51.526;9.928;2023-12-22T07:42:03;98113.78;;;5.00;100.00
25584;BME280;13463;51.526;9.928;2023-12-22T07:44:30;98111.16;;;4.86;100.00
25584;BME280;13463;51.526;9.928;2023-12-22T07:46:58;98117.56;;;4.96;100.00
25584;BME280;13463;51.526;9.928;2023-12-22T07:49:27;98113.13;;;4.97;100.00
25584;BME280;13463;51.526;9.928;2023-12-22T07:51:55;98119.47;;;5.07;100.00
25584;BME280;13463;51.526;9.928;2023-12-22T07:54:22;98123.25;;;5.03;100.00
25584;BME280;13463;51.526;9.928;2023-12-22T07:56:50;98135.63;;;5.15;100.00
25584;BME280;13463;51.526;9.928;2023-12-22T07:59:16;98150.44;;;5.30;100.00
25584;BME280;13463;51.526;9.928;2023-12-22T08:01:56;98145.09;;;5.17;100.00
25584;BME280;13463;51.526;9.928;2023-12-22T08:04:23;98138.78;;;5.34;100.00
25584;BME280;13463;51.526;9.928;2023-12-22T08:06:49;98136.03;;;5.35;100.00
25584;BME280;13463;51.526;9.928;2023-12-22T08:09:16;98155.38;;;5.49;100.00
25584;BME280;13463;51.526;9.928;2023-12-22T08:11:43;98138.25;;;5.56;100.00
25584;BME280;13463;51.526;9.928;2023-12-22T08:14:13;98143.09;;;5.62;99.40
25584;BME280;13463;51.526;9.928;2023-12-22T08:16:39;98156.72;;;5.68;97.10
25584;BME280;13463;51.526;9.928;2023-12-22T08:19:06;98152.63;;;5.77;95.74
25584;BME280;13463;51.526;9.928;2023-12-22T08:21:33;98150.31;;;5.72;96.00
25584;BME280;13463;51.526;9.928;2023-12-22T08:24:11;98156.50;;;5.85;95.36
25584;BME280;13463;51.526;9.928;2023-12-22T08:26:47;98153.69;;;5.74;95.30
25584;BME280;13463;51.526;9.928;2023-12-22T08:29:14;98168.94;;;5.96;93.81
25584;BME280;13463;51.526;9.928;2023-12-22T08:31:42;98189.91;;;5.83;95.28
25584;BME280;13463;51.526;9.928;2023-12-22T08:34:10;98179.38;;;5.97;94.89
25584;BME280;13463;51.526;9.928;2023-12-22T08:36:37;98174.81;;;5.87;95.12
25584;BME280;13463;51.526;9.928;2023-12-22T08:39:04;98169.78;;;5.96;95.08
25584;BME280;13463;51.526;9.928;2023-12-22T08:41:35;98171.69;;;5.94;95.22
25584;BME280;13463;51.526;9.928;2023-12-22T08:44:05;98179.88;;;5.90;95.98
25584;BME280;13463;51.526;9.928;2023-12-22T08:46:32;98183.44;;;5.89;95.82
25584;BME280;13463;51.526;9.928;2023-12-22T08:48:59;98190.00;;;5.96;95.36
25584;BME280;13463;51.526;9.928;2023-12-22T08:51:27;98180.22;;;5.98;95.98
25584;BME280;13463;51.526;9.928;2023-12-22T08:53:55;98187.72;;;6.04;95.05
25584;BME280;13463;51.526;9.928;2023-12-22T08:56:22;98192.31;;;6.00;95.36
25584;BME280;13463;51.526;9.928;2023-12-22T08:58:51;98174.56;;;6.04;95.56
25584;BME280;13463;51.526;9.928;2023-12-22T09:01:18;98203.19;;;6.09;95.98
25584;BME280;13463;51.526;9.928;2023-12-22T09:03:46;98191.19;;;6.04;95.48
25584;BME280;13463;51.526;9.928;2023-12-22T09:06:20;98209.16;;;5.98;97.10
25584;BME280;13463;51.526;9.928;2023-12-22T09:08:48;98222.06;;;6.15;95.16
25584;BME280;13463;51.526;9.928;2023-12-22T09:11:17;98225.34;;;6.19;94.21
25584;BME280;13463;51.526;9.928;2023-12-22T09:13:44;98234.53;;;6.26;93.19
25584;BME280;13463;51.526;9.928;2023-12-22T09:16:11;98205.66;;;6.12;93.39
25584;BME280;13463;51.526;9.928;2023-12-22T09:18:41;98218.38;;;6.05;96.35
25584;BME280;13463;51.526;9.928;2023-12-22T09:21:09;98207.47;;;5.97;98.71
25584;BME280;13463;51.526;9.928;2023-12-22T09:23:36;98211.75;;;5.85;99.63
25584;BME280;13463;51.526;9.928;2023-12-22T09:26:03;98223.09;;;5.72;100.00
25584;BME280;13463;51.526;9.928;2023-12-22T09:28:31;98218.88;;;5.69;100.00
25584;BME280;13463;51.526;9.928;2023-12-22T09:30:57;98233.63;;;5.86;99.43
25584;BME280;13463;51.526;9.928;2023-12-22T09:33:24;98214.91;;;5.76;100.00
25584;BME280;13463;51.526;9.928;2023-12-22T09:35:51;98207.47;;;5.97;96.90
25584;BME280;13463;51.526;9.928;2023-12-22T09:38:18;98205.47;;;6.00;96.78
25584;BME280;13463;51.526;9.928;2023-12-22T09:40:45;98216.47;;;6.07;96.53
25584;BME280;13463;51.526;9.928;2023-12-22T09:43:13;98217.66;;;6.16;95.92
25584;BME280;13463;51.526;9.928;2023-12-22T09:45:41;98223.75;;;6.16;96.45
25584;BME280;13463;51.526;9.928;2023-12-22T09:48:08;98215.25;;;6.25;96.19
25584;BME280;13463;51.526;9.928;2023-12-22T09:50:38;98207.16;;;6.28;96.59
25584;BME280;13463;51.526;9.928;2023-12-22T09:53:06;98214.09;;;6.29;96.27
25584;BME280;13463;51.526;9.928;2023-12-22T09:55:34;98201.34;;;6.23;96.73
25584;BME280;13463;51.526;9.928;2023-12-22T09:58:02;98205.81;;;6.35;97.31
25584;BME280;13463;51.526;9.928;2023-12-22T10:00:31;98185.69;;;6.34;97.42
25584;BME280;13463;51.526;9.928;2023-12-22T10:02:58;98204.66;;;6.27;99.00
25584;BME280;13463;51.526;9.928;2023-12-22T10:05:24;98200.84;;;6.31;99.91
25584;BME280;13463;51.526;9.928;2023-12-22T10:07:52;98207.78;;;6.32;99.16
25584;BME280;13463;51.526;9.928;2023-12-22T10:10:20;98218.53;;;6.29;100.00
25584;BME280;13463;51.526;9.928;2023-12-22T10:12:49;98217.69;;;6.28;100.00
25584;BME280;13463;51.526;9.928;2023-12-22T10:15:19;98217.38;;;6.33;99.32
25584;BME280;13463;51.526;9.928;2023-12-22T10:17:51;98220.31;;;6.28;99.84
25584;BME280;13463;51.526;9.928;2023-12-22T10:20:19;98215.81;;;6.30;100.00
25584;BME280;13463;51.526;9.928;2023-12-22T10:22:46;98204.78;;;6.50;99.22
25584;BME280;13463;51.526;9.928;2023-12-22T10:25:15;98217.63;;;6.42;100.00
25584;BME280;13463;51.526;9.928;2023-12-22T10:27:46;98213.75;;;6.48;99.97
25584;BME280;13463;51.526;9.928;2023-12-22T10:30:14;98211.63;;;6.40;100.00
25584;BME280;13463;51.526;9.928;2023-12-22T10:32:41;98215.53;;;6.47;100.00
25584;BME280;13463;51.526;9.928;2023-12-22T10:35:09;98208.44;;;6.35;100.00
25584;BME280;13463;51.526;9.928;2023-12-22T10:37:36;98199.63;;;6.36;100.00
25584;BME280;13463;51.526;9.928;2023-12-22T10:40:04;98206.03;;;6.45;100.00
25584;BME280;13463;51.526;9.928;2023-12-22T10:42:32;98206.34;;;6.40;100.00
25584;BME280;13463;51.526;9.928;2023-12-22T10:44:58;98207.59;;;6.35;100.00
25584;BME280;13463;51.526;9.928;2023-12-22T10:47:25;98195.41;;;6.46;100.00
25584;BME280;13463;51.526;9.928;2023-12-22T10:49:52;98184.13;;;6.44;100.00
25584;BME280;13463;51.526;9.928;2023-12-22T10:52:19;98184.31;;;6.29;100.00
25584;BME280;13463;51.526;9.928;2023-12-22T10:54:50;98171.25;;;6.27;100.00
25584;BME280;13463;51.526;9.928;2023-12-22T10:57:18;98171.97;;;6.29;100.00
25584;BME280;13463;51.526;9.928;2023-12-22T10:59:47;98168.41;;;6.30;100.00
25584;BME280;13463;51.526;9.928;2023-12-22T11:02:27;98149.91;;;6.57;100.00
25584;BME280;13463;51.526;9.928;2023-12-22T11:05:05;98165.31;;;6.50;100.00
25584;BME280;13463;51.526;9.928;2023-12-22T11:07:33;98180.75;;;6.42;100.00
25584;BME280;13463;51.526;9.928;2023-12-22T11:10:03;98155.38;;;6.54;100.00
25584;BME280;13463;51.526;9.928;2023-12-22T11:12:38;98135.69;;;6.47;100.00
25584;BME280;13463;51.526;9.928;2023-12-22T11:15:05;98141.28;;;6.55;100.00
25584;BME280;13463;51.526;9.928;2023-12-22T11:17:33;98135.28;;;6.53;100.00
25584;BME280;13463;51.526;9.928;2023-12-22T11:20:09;98125.91;;;6.61;100.00
25584;BME280;13463;51.526;9.928;2023-12-22T11:22:36;98110.28;;;6.58;100.00
25584;BME280;13463;51.526;9.928;2023-12-22T11:25:04;98100.72;;;6.57;100.00
25584;BME280;13463;51.526;9.928;2023-12-22T11:27:33;98093.56;;;6.59;100.00
25584;BME280;13463;51.526;9.928;2023-12-22T11:30:00;98095.56;;;6.56;100.00
25584;BME280;13463;51.526;9.928;2023-12-22T11:32:28;98113.25;;;6.66;100.00
25584;BME280;13463;51.526;9.928;2023-12-22T11:34:56;98119.25;;;6.68;100.00
25584;BME280;13463;51.526;9.928;2023-12-22T11:37:23;98086.72;;;6.69;100.00
25584;BME280;13463;51.526;9.928;2023-12-22T11:39:50;98097.78;;;6.75;100.00
25584;BME280;13463;51.526;9.928;2023-12-22T11:42:22;98101.47;;;6.72;100.00
25584;BME280;13463;51.526;9.928;2023-12-22T11:44:50;98093.84;;;6.93;100.00
25584;BME280;13463;51.526;9.928;2023-12-22T11:47:22;98096.16;;;6.85;99.73
25584;BME280;13463;51.526;9.928;2023-12-22T11:49:49;98097.44;;;6.92;99.58
25584;BME280;13463;51.526;9.928;2023-12-22T11:52:25;98085.00;;;6.94;98.62
25584;BME280;13463;51.526;9.928;2023-12-22T11:54:53;98075.69;;;7.01;100.00
25584;BME280;13463;51.526;9.928;2023-12-22T11:57:31;98067.28;;;6.96;99.81
25584;BME280;13463;51.526;9.928;2023-12-22T12:00:03;98073.81;;;6.90;100.00
25584;BME280;13463;51.526;9.928;2023-12-22T12:02:35;98062.00;;;6.96;99.76
25584;BME280;13463;51.526;9.928;2023-12-22T12:05:03;98091.59;;;6.99;99.45
25584;BME280;13463;51.526;9.928;2023-12-22T12:07:46;98098.06;;;6.83;99.86
25584;BME280;13463;51.526;9.928;2023-12-22T12:13:11;98089.28;;;6.95;100.00
25584;BME280;13463;51.526;9.928;2023-12-22T12:15:38;98081.19;;;6.98;99.98
25584;BME280;13463;51.526;9.928;2023-12-22T12:18:05;98082.03;;;6.98;100.00
25584;BME280;13463;51.526;9.928;2023-12-22T12:20:35;98082.88;;;6.99;100.00
25584;BME280;13463;51.526;9.928;2023-12-22T12:23:02;98086.13;;;7.02;100.00
25584;BME280;13463;51.526;9.928;2023-12-22T12:25:31;98084.13;;;7.06;100.00
25584;BME280;13463;51.526;9.928;2023-12-22T12:30:31;98100.16;;;7.03;100.00
25584;BME280;13463;51.526;9.928;2023-12-22T12:33:07;98084.13;;;7.06;100.00
25584;BME280;13463;51.526;9.928;2023-12-22T12:35:35;98083.31;;;6.93;100.00
25584;BME280;13463;51.526;9.928;2023-12-22T12:38:07;98079.72;;;6.94;100.00
25584;BME280;13463;51.526;9.928;2023-12-22T12:40:36;98082.06;;;6.86;100.00
25584;BME280;13463;51.526;9.928;2023-12-22T12:43:05;98077.63;;;6.73;100.00
25584;BME280;13463;51.526;9.928;2023-12-22T12:45:32;98084.88;;;6.83;100.00
25584;BME280;13463;51.526;9.928;2023-12-22T12:48:00;98077.84;;;6.70;100.00
25584;BME280;13463;51.526;9.928;2023-12-22T12:50:29;98066.25;;;6.73;100.00
25584;BME280;13463;51.526;9.928;2023-12-22T12:52:58;98068.28;;;6.69;100.00
25584;BME280;13463;51.526;9.928;2023-12-22T12:55:25;98061.31;;;6.68;100.00
25584;BME280;13463;51.526;9.928;2023-12-22T12:57:53;98046.88;;;6.87;100.00
25584;BME280;13463;51.526;9.928;2023-12-22T13:00:27;98051.09;;;6.77;100.00
25584;BME280;13463;51.526;9.928;2023-12-22T13:02:55;98046.94;;;6.85;100.00
25584;BME280;13463;51.526;9.928;2023-12-22T13:05:23;98047.03;;;6.96;100.00
25584;BME280;13463;51.526;9.928;2023-12-22T13:07:50;98041.34;;;6.90;100.00
25584;BME280;13463;51.526;9.928;2023-12-22T13:10:24;98038.97;;;6.87;100.00
25584;BME280;13463;51.526;9.928;2023-12-22T13:12:51;98036.38;;;6.98;100.00
25584;BME280;13463;51.526;9.928;2023-12-22T13:15:20;98053.91;;;6.99;100.00
25584;BME280;13463;51.526;9.928;2023-12-22T13:17:48;98035.44;;;6.99;100.00
25584;BME280;13463;51.526;9.928;2023-12-22T13:20:15;98048.53;;;6.88;100.00